createdAt,value
2019-05-26T00:00:46.638Z,7.57
2019-05-26T00:03:18.383Z,13.17
2019-05-26T00:05:52.450Z,17.43
2019-05-26T00:08:24.198Z,13.27
2019-05-26T00:10:56.302Z,10.73
2019-05-26T00:13:28.971Z,10.63
2019-05-26T00:16:02.881Z,14.50
2019-05-26T00:18:34.699Z,14.77
2019-05-26T00:21:08.149Z,16.20
2019-05-26T00:23:42.184Z,10.10
2019-05-26T00:26:13.746Z,9.13
2019-05-26T00:28:45.518Z,8.33
2019-05-26T00:31:18.006Z,8.80
2019-05-26T00:33:50.697Z,9.03
2019-05-26T00:36:22.577Z,9.20
2019-05-26T00:38:55.535Z,8.03
2019-05-26T00:41:26.949Z,7.97
2019-05-26T00:44:00.994Z,14.33
2019-05-26T00:46:33.818Z,13.40
2019-05-26T00:49:05.497Z,9.90
2019-05-26T00:51:37.861Z,9.63
2019-05-26T00:54:10.565Z,10.20
2019-05-26T00:56:43.412Z,8.13
2019-05-26T00:59:15.350Z,7.93
2019-05-26T01:01:46.934Z,8.40
2019-05-26T01:04:18.377Z,7.90
2019-05-26T01:06:50.954Z,8.47
2019-05-26T01:09:25.354Z,8.40
2019-05-26T01:11:56.896Z,9.47
2019-05-26T01:14:29.569Z,8.63
2019-05-26T01:17:03.215Z,8.10
2019-05-26T01:19:34.721Z,9.43
2019-05-26T01:22:09.099Z,10.40
2019-05-26T01:24:44.302Z,9.43
2019-05-26T01:27:18.348Z,9.33
2019-05-26T01:29:49.381Z,10.13
2019-05-26T01:32:21.041Z,9.10
2019-05-26T01:34:55.527Z,9.30
2019-05-26T01:37:27.995Z,8.70
2019-05-26T01:39:59.851Z,9.10
2019-05-26T01:42:32.969Z,8.37
2019-05-26T01:45:09.208Z,8.80
2019-05-26T01:47:40.182Z,8.97
2019-05-26T01:50:12.603Z,8.57
2019-05-26T01:52:44.946Z,9.03
2019-05-26T01:55:17.683Z,8.13
2019-05-26T01:57:49.530Z,8.97
2019-05-26T02:00:23.146Z,9.73
2019-05-26T02:02:55.550Z,9.83
2019-05-26T02:05:28.042Z,9.17
2019-05-26T02:08:01.483Z,9.73
2019-05-26T02:10:33.558Z,10.40
2019-05-26T02:13:05.130Z,10.40
2019-05-26T02:15:38.238Z,11.37
2019-05-26T02:18:09.397Z,11.00
2019-05-26T02:20:43.471Z,11.60
2019-05-26T02:23:15.726Z,10.90
2019-05-26T02:25:49.269Z,9.60
2019-05-26T02:28:21.646Z,11.27
2019-05-26T02:30:54.044Z,12.00
2019-05-26T02:33:28.433Z,11.63
2019-05-26T02:36:01.141Z,11.93
2019-05-26T02:38:35.537Z,12.60
2019-05-26T02:41:08.193Z,12.27
2019-05-26T02:43:40.771Z,12.30
2019-05-26T02:46:16.629Z,12.23
2019-05-26T02:48:48.459Z,12.43
2019-05-26T02:51:22.613Z,12.13
2019-05-26T02:53:54.323Z,13.03
2019-05-26T02:56:28.658Z,12.70
2019-05-26T02:59:02.885Z,11.50
2019-05-26T03:01:35.112Z,13.83
2019-05-26T03:04:07.176Z,14.13
2019-05-26T03:06:41.835Z,15.00
2019-05-26T03:09:22.962Z,14.13
2019-05-26T03:11:52.110Z,14.23
2019-05-26T03:14:24.831Z,14.67
2019-05-26T03:16:55.780Z,15.63
2019-05-26T03:19:26.714Z,15.33
2019-05-26T03:22:00.959Z,15.20
2019-05-26T03:24:33.417Z,15.50
2019-05-26T03:27:04.402Z,15.00
2019-05-26T03:29:36.145Z,14.80
2019-05-26T03:32:09.919Z,16.37
2019-05-26T03:34:41.463Z,15.50
2019-05-26T03:37:13.211Z,16.23
2019-05-26T03:39:46.523Z,16.27
2019-05-26T03:42:19.575Z,16.33
2019-05-26T03:44:52.382Z,17.37
2019-05-26T03:47:24.229Z,16.10
2019-05-26T03:49:56.972Z,16.27
2019-05-26T03:52:30.939Z,18.17
2019-05-26T03:55:03.319Z,16.77
2019-05-26T03:57:35.721Z,19.77
2019-05-26T04:00:08.439Z,20.70
2019-05-26T04:02:41.399Z,20.97
2019-05-26T04:05:13.419Z,22.03
2019-05-26T04:07:45.995Z,22.47
2019-05-26T04:10:18.354Z,21.33
2019-05-26T04:12:51.441Z,22.27
2019-05-26T04:15:25.128Z,22.03
2019-05-26T04:18:00.803Z,21.13
2019-05-26T04:20:33.246Z,23.03
2019-05-26T04:23:04.940Z,23.37
2019-05-26T04:25:37.630Z,22.27
2019-05-26T04:28:11.376Z,25.13
2019-05-26T04:30:45.439Z,25.10
2019-05-26T04:33:17.917Z,24.20
2019-05-26T04:35:51.562Z,24.20
2019-05-26T04:38:23.053Z,25.90
2019-05-26T04:40:55.733Z,26.67
2019-05-26T04:43:27.278Z,26.70
2019-05-26T04:45:58.954Z,28.40
2019-05-26T04:48:30.494Z,28.93
2019-05-26T04:51:02.995Z,29.60
2019-05-26T04:53:35.394Z,29.57
2019-05-26T04:56:08.058Z,30.03
2019-05-26T04:58:43.091Z,31.17
2019-05-26T05:01:15.794Z,29.83
2019-05-26T05:03:48.195Z,31.40
2019-05-26T05:06:19.420Z,33.17
2019-05-26T05:08:52.233Z,34.30
2019-05-26T05:11:25.002Z,34.20
2019-05-26T05:13:57.649Z,33.60
2019-05-26T05:16:29.947Z,35.30
2019-05-26T05:19:02.735Z,35.73
2019-05-26T05:21:34.585Z,36.93
2019-05-26T05:24:06.800Z,34.57
2019-05-26T05:26:40.864Z,37.47
2019-05-26T05:29:13.141Z,39.60
2019-05-26T05:31:47.499Z,40.37
2019-05-26T05:34:20.403Z,40.57
2019-05-26T05:36:53.225Z,39.73
2019-05-26T05:39:26.321Z,39.97
2019-05-26T05:41:58.190Z,40.17
2019-05-26T05:44:29.752Z,39.77
2019-05-26T05:47:01.484Z,39.77
2019-05-26T05:49:33.498Z,40.03
2019-05-26T05:52:05.878Z,38.80
2019-05-26T05:54:39.545Z,38.23
2019-05-26T05:57:11.970Z,37.37
2019-05-26T05:59:43.690Z,47.60
2019-05-26T06:02:16.310Z,35.07
2019-05-26T06:04:48.229Z,37.60
2019-05-26T06:07:21.038Z,36.57
2019-05-26T06:09:53.997Z,35.60
2019-05-26T06:12:25.751Z,35.50
2019-05-26T06:14:58.457Z,36.00
2019-05-26T06:17:30.408Z,35.47
2019-05-26T06:20:02.527Z,34.83
2019-05-26T06:22:37.089Z,32.40
2019-05-26T06:25:10.515Z,33.60
2019-05-26T06:27:43.223Z,34.23
2019-05-26T06:30:16.362Z,31.90
2019-05-26T06:32:48.926Z,31.47
2019-05-26T06:35:20.503Z,29.70
2019-05-26T06:37:53.300Z,29.53
2019-05-26T06:40:25.186Z,30.80
2019-05-26T06:42:57.846Z,30.17
2019-05-26T06:45:31.870Z,29.90
2019-05-26T06:48:06.005Z,30.77
2019-05-26T06:50:38.509Z,31.17
2019-05-26T06:53:12.888Z,31.77
2019-05-26T06:55:45.356Z,28.73
2019-05-26T06:58:18.047Z,28.87
2019-05-26T07:00:50.775Z,28.23
2019-05-26T07:03:23.367Z,27.40
2019-05-26T07:05:57.039Z,27.40
2019-05-26T07:08:30.538Z,27.33
2019-05-26T07:11:01.934Z,27.47
2019-05-26T07:13:34.689Z,26.30
2019-05-26T07:16:07.518Z,25.73
2019-05-26T07:18:40.606Z,26.83
2019-05-26T07:21:13.420Z,26.33
2019-05-26T07:23:45.393Z,26.13
2019-05-26T07:26:18.225Z,25.10
2019-05-26T07:28:52.505Z,25.53
2019-05-26T07:31:24.339Z,24.03
2019-05-26T07:33:57.602Z,24.40
2019-05-26T07:36:29.144Z,24.93
2019-05-26T07:39:00.878Z,23.53
2019-05-26T07:41:33.057Z,23.33
2019-05-26T07:44:05.251Z,22.73
2019-05-26T07:46:37.115Z,22.77
2019-05-26T07:49:09.562Z,22.47
2019-05-26T07:51:42.131Z,20.37
2019-05-26T07:54:24.947Z,20.17
2019-05-26T07:56:47.203Z,20.13
2019-05-26T07:59:20.001Z,32.40
2019-05-26T08:01:53.575Z,20.07
2019-05-26T08:04:26.903Z,20.40
2019-05-26T08:06:59.122Z,18.93
2019-05-26T08:09:32.738Z,19.83
2019-05-26T08:12:03.664Z,18.50
2019-05-26T08:14:35.954Z,18.67
2019-05-26T08:17:08.313Z,19.57
2019-05-26T08:19:40.697Z,18.33
2019-05-26T08:22:12.465Z,17.13
2019-05-26T08:24:46.318Z,18.03
2019-05-26T08:27:17.822Z,18.60
2019-05-26T08:29:52.273Z,17.07
2019-05-26T08:32:25.048Z,16.57
2019-05-26T08:34:57.846Z,14.90
2019-05-26T08:37:28.630Z,15.13
2019-05-26T08:40:03.033Z,14.37
2019-05-26T08:42:44.458Z,14.23
2019-05-26T08:45:14.574Z,14.40
2019-05-26T08:47:46.917Z,13.83
2019-05-26T08:50:19.019Z,12.53
2019-05-26T08:52:52.586Z,12.73
2019-05-26T08:55:24.509Z,12.17
2019-05-26T08:57:56.578Z,11.10
2019-05-26T09:00:29.023Z,11.67
2019-05-26T09:03:00.721Z,10.83
2019-05-26T09:05:31.477Z,11.70
2019-05-26T09:08:03.353Z,10.50
2019-05-26T09:10:34.835Z,10.70
2019-05-26T09:13:10.126Z,10.40
2019-05-26T09:15:45.809Z,10.33
2019-05-26T09:18:17.386Z,9.70
2019-05-26T09:20:50.039Z,9.07
2019-05-26T09:23:22.501Z,9.40
2019-05-26T09:25:56.655Z,8.27
2019-05-26T09:28:28.726Z,8.80
2019-05-26T09:31:00.473Z,8.53
2019-05-26T09:33:33.186Z,8.90
2019-05-26T09:36:06.010Z,9.10
2019-05-26T09:38:39.106Z,9.27
2019-05-26T09:41:12.005Z,8.80
2019-05-26T09:43:43.076Z,9.07
2019-05-26T09:46:14.946Z,9.67
2019-05-26T09:48:49.907Z,8.80
2019-05-26T09:51:22.610Z,8.30
2019-05-26T09:54:01.539Z,7.70
2019-05-26T09:56:29.529Z,6.70
2019-05-26T09:59:01.255Z,6.60
2019-05-26T10:01:34.928Z,6.00
2019-05-26T10:04:08.954Z,5.83
2019-05-26T10:06:41.753Z,6.47
2019-05-26T10:09:14.200Z,6.43
2019-05-26T10:11:47.081Z,6.47
2019-05-26T10:14:19.871Z,5.73
2019-05-26T10:16:52.224Z,5.70
2019-05-26T10:19:23.105Z,5.70
2019-05-26T10:21:55.790Z,5.57
2019-05-26T10:24:28.185Z,6.40
2019-05-26T10:27:01.555Z,5.77
2019-05-26T10:29:33.282Z,5.37
2019-05-26T10:32:05.218Z,5.33
2019-05-26T10:34:36.707Z,5.83
2019-05-26T10:37:08.989Z,5.80
2019-05-26T10:39:44.837Z,6.33
2019-05-26T10:42:15.171Z,5.73
2019-05-26T10:44:46.943Z,5.53
2019-05-26T10:47:18.470Z,5.80
2019-05-26T10:49:50.109Z,5.70
2019-05-26T10:52:22.936Z,5.60
2019-05-26T10:54:55.409Z,5.33
2019-05-26T10:57:27.693Z,5.20
2019-05-26T11:00:02.794Z,5.80
2019-05-26T11:02:36.075Z,15.83
2019-05-26T11:05:09.557Z,5.97
2019-05-26T11:07:42.057Z,5.00
2019-05-26T11:10:13.859Z,4.70
2019-05-26T11:12:45.575Z,4.93
2019-05-26T11:15:19.899Z,5.13
2019-05-26T11:17:51.643Z,4.93
2019-05-26T11:20:23.169Z,4.83
2019-05-26T11:22:55.762Z,4.97
2019-05-26T11:25:27.130Z,4.57
2019-05-26T11:28:01.354Z,4.93
2019-05-26T11:30:33.046Z,4.90
2019-05-26T11:33:07.290Z,4.87
2019-05-26T11:35:40.156Z,5.10
2019-05-26T11:38:14.225Z,4.67
2019-05-26T11:40:45.704Z,5.10
2019-05-26T11:43:17.627Z,4.97
2019-05-26T11:45:50.261Z,5.40
2019-05-26T11:48:21.777Z,5.40
2019-05-26T11:50:54.368Z,5.60
2019-05-26T11:53:26.803Z,5.43
2019-05-26T11:56:02.698Z,5.77
2019-05-26T11:58:35.525Z,6.57
2019-05-26T12:01:08.272Z,6.27
2019-05-26T12:03:44.247Z,5.17
2019-05-26T12:06:16.885Z,5.50
2019-05-26T12:08:48.427Z,5.87
2019-05-26T12:11:20.169Z,5.53
2019-05-26T12:13:54.382Z,6.13
2019-05-26T12:16:28.963Z,6.50
2019-05-26T12:19:01.572Z,5.77
2019-05-26T12:21:34.358Z,5.73
2019-05-26T12:24:05.900Z,5.03
2019-05-26T12:26:37.633Z,4.83
2019-05-26T12:29:11.985Z,4.70
2019-05-26T12:31:44.240Z,4.60
2019-05-26T12:34:16.596Z,4.10
2019-05-26T12:36:50.095Z,4.53
2019-05-26T12:39:24.206Z,4.90
2019-05-26T12:41:57.470Z,5.20
2019-05-26T12:44:30.959Z,4.60
2019-05-26T12:47:03.459Z,3.80
2019-05-26T12:49:35.677Z,4.77
2019-05-26T12:52:07.420Z,4.50
2019-05-26T12:54:38.972Z,5.00
2019-05-26T12:57:13.383Z,4.77
2019-05-26T12:59:46.264Z,4.30
2019-05-26T13:02:18.213Z,4.63
2019-05-26T13:04:51.610Z,4.30
2019-05-26T13:07:26.024Z,4.27
2019-05-26T13:10:00.522Z,4.07
2019-05-26T13:12:33.247Z,5.07
2019-05-26T13:15:07.718Z,4.80
2019-05-26T13:17:39.638Z,4.37
2019-05-26T13:20:15.594Z,4.33
2019-05-26T13:22:47.430Z,4.87
2019-05-26T13:25:21.522Z,4.07
2019-05-26T13:27:54.373Z,4.37
2019-05-26T13:30:28.810Z,12.87
2019-05-26T13:33:02.861Z,4.30
2019-05-26T13:35:35.610Z,4.10
2019-05-26T13:38:07.788Z,4.07
2019-05-26T13:40:40.491Z,3.80
2019-05-26T13:43:12.337Z,3.90
2019-05-26T13:45:44.866Z,4.40
2019-05-26T13:48:18.097Z,4.00
2019-05-26T13:50:50.588Z,3.80
2019-05-26T13:53:22.120Z,3.70
2019-05-26T13:55:56.109Z,4.20
2019-05-26T13:58:28.385Z,4.10
2019-05-26T14:01:00.913Z,3.63
2019-05-26T14:03:35.885Z,4.07
2019-05-26T14:06:07.104Z,4.00
2019-05-26T14:08:39.686Z,4.27
2019-05-26T14:11:11.390Z,4.20
2019-05-26T14:13:44.077Z,4.03
2019-05-26T14:16:16.542Z,4.40
2019-05-26T14:18:49.911Z,4.17
2019-05-26T14:21:23.105Z,3.93
2019-05-26T14:23:55.530Z,4.00
2019-05-26T14:26:26.950Z,3.53
2019-05-26T14:29:01.360Z,3.50
2019-05-26T14:31:34.650Z,3.50
2019-05-26T14:34:06.402Z,3.40
2019-05-26T14:36:40.911Z,3.63
2019-05-26T14:39:13.073Z,3.63
2019-05-26T14:41:45.565Z,3.60
2019-05-26T14:44:18.068Z,3.93
2019-05-26T14:46:49.611Z,3.70
2019-05-26T14:49:22.977Z,3.50
2019-05-26T14:51:55.562Z,3.63
2019-05-26T14:54:27.724Z,3.70
2019-05-26T14:57:00.221Z,3.83
2019-05-26T14:59:31.970Z,3.97
2019-05-26T15:02:04.781Z,4.03
2019-05-26T15:04:37.182Z,4.40
2019-05-26T15:07:08.478Z,4.00
2019-05-26T15:09:42.222Z,4.23
2019-05-26T15:12:13.971Z,4.90
2019-05-26T15:14:46.636Z,5.13
2019-05-26T15:17:19.042Z,4.63
2019-05-26T15:19:50.945Z,4.43
2019-05-26T15:22:23.290Z,5.07
2019-05-26T15:24:55.605Z,4.80
2019-05-26T15:27:28.197Z,4.37
2019-05-26T15:30:00.453Z,4.43
2019-05-26T15:32:33.389Z,5.13
2019-05-26T15:35:06.990Z,4.77
2019-05-26T15:37:40.454Z,4.80
2019-05-26T15:40:11.922Z,4.97
2019-05-26T15:42:43.688Z,5.17
2019-05-26T15:45:20.838Z,4.30
2019-05-26T15:47:52.749Z,4.37
2019-05-26T15:50:24.308Z,4.43
2019-05-26T15:52:56.778Z,4.20
2019-05-26T15:55:28.548Z,4.63
2019-05-26T15:58:01.366Z,4.47
2019-05-26T16:00:33.844Z,4.40
2019-05-26T16:03:08.242Z,4.50
2019-05-26T16:05:40.937Z,4.60
2019-05-26T16:08:15.189Z,4.60
2019-05-26T16:10:48.536Z,4.57
2019-05-26T16:13:20.394Z,4.70
2019-05-26T16:15:52.161Z,4.90
2019-05-26T16:18:24.478Z,4.77
2019-05-26T16:21:03.151Z,4.30
2019-05-26T16:23:30.794Z,4.10
2019-05-26T16:26:02.039Z,4.40
2019-05-26T16:28:35.389Z,4.60
2019-05-26T16:31:07.325Z,4.80
2019-05-26T16:33:42.470Z,4.40
2019-05-26T16:36:15.619Z,5.17
2019-05-26T16:38:48.458Z,5.23
2019-05-26T16:41:22.551Z,5.10
2019-05-26T16:43:54.513Z,5.63
2019-05-26T16:46:29.212Z,4.90
2019-05-26T16:49:01.615Z,4.70
2019-05-26T16:51:33.380Z,92.67
2019-05-26T16:54:06.282Z,4.83
2019-05-26T16:56:39.406Z,4.90
2019-05-26T16:59:11.145Z,4.77
2019-05-26T17:01:43.566Z,4.63
2019-05-26T17:04:16.441Z,5.00
2019-05-26T17:06:49.865Z,4.40
2019-05-26T17:09:22.673Z,4.73
2019-05-26T17:11:55.084Z,4.40
2019-05-26T17:14:26.031Z,4.50
2019-05-26T17:17:13.434Z,4.10
2019-05-26T17:19:32.702Z,4.43
2019-05-26T17:22:05.204Z,4.63
2019-05-26T17:24:36.637Z,3.90
2019-05-26T17:27:09.958Z,4.00
2019-05-26T17:29:42.490Z,4.40
2019-05-26T17:32:14.825Z,4.30
2019-05-26T17:34:50.597Z,4.40
2019-05-26T17:37:23.395Z,4.70
2019-05-26T17:39:56.174Z,4.87
2019-05-26T17:42:28.882Z,4.23
2019-05-26T17:45:01.365Z,4.20
2019-05-26T17:47:32.938Z,4.63
2019-05-26T17:50:06.786Z,4.03
2019-05-26T17:52:40.868Z,4.37
2019-05-26T17:55:13.958Z,4.63
2019-05-26T17:57:46.809Z,4.63
2019-05-26T18:00:19.310Z,4.43
2019-05-26T18:02:50.749Z,4.40
2019-05-26T18:05:23.341Z,4.53
2019-05-26T18:07:56.121Z,4.43
2019-05-26T18:10:28.918Z,4.67
2019-05-26T18:13:01.946Z,4.83
2019-05-26T18:15:33.814Z,4.97
2019-05-26T18:18:05.633Z,5.00
2019-05-26T18:20:38.016Z,5.23
2019-05-26T18:23:10.598Z,5.57
2019-05-26T18:25:45.662Z,5.50
2019-05-26T18:28:18.102Z,5.50
2019-05-26T18:30:53.210Z,5.70
2019-05-26T18:33:25.598Z,5.80
2019-05-26T18:35:57.135Z,15.50
2019-05-26T18:38:30.489Z,6.60
2019-05-26T18:41:03.817Z,11.27
2019-05-26T18:43:35.753Z,6.37
2019-05-26T18:46:07.606Z,6.60
2019-05-26T18:48:41.053Z,5.40
2019-05-26T18:51:14.181Z,5.60
2019-05-26T18:53:46.046Z,6.43
2019-05-26T18:56:17.100Z,5.30
2019-05-26T18:58:48.049Z,5.33
2019-05-26T19:01:18.810Z,5.03
2019-05-26T19:03:49.486Z,4.57
2019-05-26T19:06:22.047Z,4.70
2019-05-26T19:08:53.205Z,4.37
2019-05-26T19:11:25.679Z,4.00
2019-05-26T19:13:59.198Z,4.20
2019-05-26T19:16:31.078Z,3.83
2019-05-26T19:19:03.578Z,4.10
2019-05-26T19:21:34.942Z,4.07
2019-05-26T19:24:08.293Z,4.20
2019-05-26T19:26:40.745Z,3.77
2019-05-26T19:29:15.145Z,3.50
2019-05-26T19:31:46.986Z,3.20
2019-05-26T19:34:22.950Z,3.87
2019-05-26T19:36:56.478Z,4.00
2019-05-26T19:39:28.238Z,4.10
2019-05-26T19:42:00.717Z,4.07
2019-05-26T19:44:33.129Z,4.00
2019-05-26T19:47:05.509Z,4.07
2019-05-26T19:49:39.608Z,4.07
2019-05-26T19:52:11.035Z,4.50
2019-05-26T19:54:43.448Z,4.27
2019-05-26T19:57:15.700Z,4.90
2019-05-26T19:59:48.386Z,4.90
2019-05-26T20:02:21.024Z,4.70
2019-05-26T20:04:53.623Z,4.70
2019-05-26T20:07:26.098Z,4.10
2019-05-26T20:09:57.861Z,4.27
2019-05-26T20:12:30.450Z,4.00
2019-05-26T20:15:02.879Z,4.30
2019-05-26T20:17:35.269Z,4.30
2019-05-26T20:20:07.622Z,4.17
2019-05-26T20:22:39.098Z,4.23
2019-05-26T20:25:11.504Z,4.13
2019-05-26T20:27:45.042Z,4.40
2019-05-26T20:30:21.331Z,4.50
2019-05-26T20:32:52.410Z,4.80
2019-05-26T20:35:23.849Z,5.00
2019-05-26T20:37:55.220Z,5.10
2019-05-26T20:40:27.923Z,5.07
2019-05-26T20:43:00.323Z,5.40
2019-05-26T20:45:32.906Z,5.13
2019-05-26T20:48:05.382Z,5.70
2019-05-26T20:50:39.374Z,5.67
2019-05-26T20:53:11.585Z,5.77
2019-05-26T20:55:43.387Z,5.47
2019-05-26T20:58:16.718Z,5.27
2019-05-26T21:00:49.003Z,6.00
2019-05-26T21:03:20.558Z,5.20
2019-05-26T21:05:53.283Z,5.30
2019-05-26T21:08:24.991Z,5.80
2019-05-26T21:10:57.788Z,5.60
2019-05-26T21:13:30.229Z,5.70
2019-05-26T21:16:02.442Z,5.27
2019-05-26T21:18:33.872Z,5.60
2019-05-26T21:21:05.320Z,4.90
2019-05-26T21:23:36.712Z,5.57
2019-05-26T21:26:09.287Z,5.13
2019-05-26T21:28:42.085Z,4.93
2019-05-26T21:31:14.818Z,4.83
2019-05-26T21:33:47.561Z,4.97
2019-05-26T21:36:20.276Z,5.40
2019-05-26T21:38:52.095Z,4.70
2019-05-26T21:41:24.885Z,4.40
2019-05-26T21:43:57.270Z,5.50
2019-05-26T21:46:29.634Z,5.47
2019-05-26T21:49:01.102Z,4.77
2019-05-26T21:51:32.678Z,5.13
2019-05-26T21:54:05.138Z,4.70
2019-05-26T21:56:36.682Z,5.00
2019-05-26T21:59:10.218Z,4.53
2019-05-26T22:01:41.453Z,4.43
2019-05-26T22:04:13.331Z,4.30
2019-05-26T22:06:46.766Z,4.10
2019-05-26T22:09:19.195Z,4.33
2019-05-26T22:11:51.339Z,3.77
2019-05-26T22:14:23.203Z,3.87
2019-05-26T22:16:54.279Z,4.07
2019-05-26T22:19:27.036Z,4.33
2019-05-26T22:22:01.509Z,3.97
2019-05-26T22:24:34.078Z,4.07
2019-05-26T22:27:05.757Z,3.83
2019-05-26T22:29:38.005Z,3.73
2019-05-26T22:32:11.217Z,3.83
2019-05-26T22:34:45.342Z,3.90
2019-05-26T22:37:18.934Z,4.33
2019-05-26T22:39:50.348Z,4.33
2019-05-26T22:42:22.957Z,3.90
2019-05-26T22:44:57.449Z,3.97
2019-05-26T22:47:33.381Z,4.73
2019-05-26T22:50:11.521Z,4.30
2019-05-26T22:52:43.333Z,4.50
2019-05-26T22:55:15.805Z,4.57
2019-05-26T22:57:49.233Z,5.00
2019-05-26T23:00:23.345Z,4.83
2019-05-26T23:02:55.125Z,4.80
2019-05-26T23:05:27.950Z,4.87
2019-05-26T23:08:00.122Z,4.83
2019-05-26T23:10:31.158Z,4.60
2019-05-26T23:13:05.654Z,4.60
2019-05-26T23:15:38.850Z,4.77
2019-05-26T23:18:11.378Z,4.33
2019-05-26T23:20:43.114Z,4.63
2019-05-26T23:23:16.474Z,4.50
2019-05-26T23:25:48.941Z,4.73
2019-05-26T23:28:21.636Z,5.23
2019-05-26T23:30:53.429Z,4.87
2019-05-26T23:33:26.128Z,4.97
2019-05-26T23:35:57.970Z,4.83
2019-05-26T23:38:32.485Z,4.90
2019-05-26T23:41:05.391Z,5.20
2019-05-26T23:43:40.079Z,5.33
2019-05-26T23:46:12.514Z,5.60
2019-05-26T23:48:46.385Z,5.50
2019-05-26T23:51:19.320Z,5.77
2019-05-26T23:53:51.914Z,5.93
2019-05-26T23:56:24.197Z,5.80
2019-05-26T23:58:56.416Z,5.93
